createdAt,value
2023-02-04T00:01:31.610Z,34.69
2023-02-04T00:03:35.971Z,34.96
2023-02-04T00:05:40.408Z,35.3
2023-02-04T00:07:44.781Z,35.15
2023-02-04T00:09:49.157Z,35.26
2023-02-04T00:11:53.508Z,35.19
2023-02-04T00:13:57.887Z,35.62
2023-02-04T00:16:02.461Z,35.27
2023-02-04T00:18:06.836Z,35.45
2023-02-04T00:20:11.201Z,35.63
2023-02-04T00:22:15.550Z,35.81
2023-02-04T00:24:19.932Z,35.59
2023-02-04T00:26:24.306Z,35.69
2023-02-04T00:28:28.679Z,35.59
2023-02-04T00:30:33.892Z,35.34
2023-02-04T00:32:38.229Z,35.92
2023-02-04T00:34:42.573Z,35.55
2023-02-04T00:36:46.935Z,35.57
2023-02-04T00:38:51.305Z,35.45
2023-02-04T00:40:55.664Z,35.93
2023-02-04T00:43:00.102Z,35.89
2023-02-04T00:45:04.495Z,35.54
2023-02-04T00:47:08.873Z,36.01
2023-02-04T00:49:13.244Z,36.09
2023-02-04T00:51:17.608Z,36.08
2023-02-04T00:53:21.958Z,36.1
2023-02-04T00:55:26.321Z,36.22
2023-02-04T00:57:30.641Z,36.15
2023-02-04T00:59:35.002Z,36.05
2023-02-04T01:01:39.388Z,36.27
2023-02-04T01:03:43.688Z,36.2
2023-02-04T01:05:47.997Z,36.06
2023-02-04T01:07:52.426Z,36.31
2023-02-04T01:09:56.782Z,36.34
2023-02-04T01:12:01.125Z,36.23
2023-02-04T01:14:05.646Z,36.3
2023-02-04T01:16:10.218Z,36.36
2023-02-04T01:18:14.697Z,36.37
2023-02-04T01:20:19.019Z,36.3
2023-02-04T01:22:23.376Z,36.35
2023-02-04T01:24:27.847Z,36.41
2023-02-04T01:26:32.278Z,36.43
2023-02-04T01:28:36.631Z,36.31
2023-02-04T01:30:41.179Z,36.45
2023-02-04T01:32:45.637Z,36.54
2023-02-04T01:34:49.978Z,36.55
2023-02-04T01:36:54.325Z,36.96
2023-02-04T01:38:58.776Z,36.89
2023-02-04T01:41:03.126Z,36.68
2023-02-04T01:43:07.492Z,36.89
2023-02-04T01:45:11.875Z,36.89
2023-02-04T01:47:16.227Z,36.89
2023-02-04T01:49:20.585Z,36.75
2023-02-04T01:51:25.202Z,36.83
2023-02-04T01:53:29.593Z,36.68
2023-02-04T01:55:33.957Z,36.76
2023-02-04T01:57:38.381Z,36.82
2023-02-04T01:59:42.783Z,36.7
2023-02-04T02:01:47.208Z,36.78
2023-02-04T02:03:51.599Z,36.77
2023-02-04T02:05:55.967Z,36.66
2023-02-04T02:08:00.382Z,36.76
2023-02-04T02:10:04.792Z,36.81
2023-02-04T02:12:09.167Z,36.82
2023-02-04T02:14:13.570Z,36.68
2023-02-04T02:16:18.124Z,36.7
2023-02-04T02:18:22.562Z,36.99
2023-02-04T02:20:26.971Z,36.68
2023-02-04T02:22:31.362Z,36.98
2023-02-04T02:24:35.831Z,36.96
2023-02-04T02:26:40.227Z,37.06
2023-02-04T02:28:44.577Z,36.99
2023-02-04T02:30:49.259Z,36.95
2023-02-04T02:32:53.722Z,37.05
2023-02-04T02:34:58.125Z,37.12
2023-02-04T02:37:02.582Z,37.19
2023-02-04T02:39:07.142Z,37.12
2023-02-04T02:41:11.565Z,37.18
2023-02-04T02:43:15.966Z,37.13
2023-02-04T02:45:20.380Z,37.15
2023-02-04T02:47:24.730Z,37.18
2023-02-04T02:49:29.109Z,37.18
2023-02-04T02:51:33.463Z,37.17
2023-02-04T02:54:01.392Z,37.22
2023-02-04T02:56:05.814Z,37.19
2023-02-04T02:58:10.176Z,37.25
2023-02-04T03:00:14.624Z,37.28
2023-02-04T03:02:19.234Z,37.26
2023-02-04T03:04:23.634Z,37.29
2023-02-04T03:06:28.032Z,37.27
2023-02-04T03:08:32.421Z,37.47
2023-02-04T03:10:36.829Z,37.5
2023-02-04T03:12:41.224Z,37.43
2023-02-04T03:14:45.651Z,37.47
2023-02-04T03:16:50.067Z,37.47
2023-02-04T03:18:54.431Z,37.55
2023-02-04T03:20:58.866Z,37.54
2023-02-04T03:23:03.336Z,37.66
2023-02-04T03:25:07.721Z,37.64
2023-02-04T03:27:12.209Z,37.72
2023-02-04T03:29:16.576Z,37.66
2023-02-04T03:31:21.437Z,37.73
2023-02-04T03:33:25.927Z,37.68
2023-02-04T03:35:30.391Z,37.71
2023-02-04T03:37:34.830Z,37.66
2023-02-04T03:39:39.201Z,37.66
2023-02-04T03:41:43.615Z,37.65
2023-02-04T03:43:48.001Z,37.66
2023-02-04T03:45:52.433Z,37.78
2023-02-04T03:47:56.827Z,37.63
2023-02-04T03:50:01.229Z,37.72
2023-02-04T03:52:05.651Z,37.79
2023-02-04T03:54:10.056Z,37.8
2023-02-04T03:56:14.424Z,37.84
2023-02-04T03:58:18.816Z,37.86
2023-02-04T04:00:23.215Z,37.96
2023-02-04T04:02:27.792Z,38.01
2023-02-04T04:04:32.262Z,38.09
2023-02-04T04:06:36.640Z,38.05
2023-02-04T04:08:41.047Z,38.12
2023-02-04T04:10:45.461Z,38.21
2023-02-04T04:12:49.867Z,38.22
2023-02-04T04:14:54.276Z,38.22
2023-02-04T04:16:58.664Z,38.17
2023-02-04T04:19:03.062Z,38.22
2023-02-04T04:21:07.433Z,38.1
2023-02-04T04:23:11.818Z,38.14
2023-02-04T04:25:16.210Z,38.22
2023-02-04T04:27:20.615Z,38.22
2023-02-04T04:29:25.013Z,38.29
2023-02-04T04:31:29.836Z,38.3
2023-02-04T04:33:34.278Z,38.28
2023-02-04T04:35:38.751Z,38.26
2023-02-04T04:37:43.139Z,38.23
2023-02-04T04:39:47.546Z,38.27
2023-02-04T04:41:51.952Z,38.27
2023-02-04T04:43:56.406Z,38.29
2023-02-04T04:46:00.769Z,38.25
2023-02-04T04:48:05.196Z,38.22
2023-02-04T04:50:09.593Z,38.32
2023-02-04T04:52:13.991Z,38.21
2023-02-04T04:54:18.344Z,38.2
2023-02-04T04:56:22.714Z,38.25
2023-02-04T04:58:27.121Z,38.29
2023-02-04T05:00:32.875Z,38.33
2023-02-04T05:02:37.386Z,38.43
2023-02-04T05:04:41.865Z,38.45
2023-02-04T05:06:46.273Z,38.62
2023-02-04T05:08:50.686Z,38.51
2023-02-04T05:10:55.044Z,38.46
2023-02-04T05:12:59.438Z,38.56
2023-02-04T05:15:03.991Z,38.5
2023-02-04T05:17:08.361Z,38.66
2023-02-04T05:19:12.925Z,38.38
2023-02-04T05:21:17.335Z,38.49
2023-02-04T05:23:21.710Z,38.39
2023-02-04T05:25:26.119Z,38.42
2023-02-04T05:27:30.589Z,38.38
2023-02-04T05:29:35.112Z,38.42
2023-02-04T05:31:39.749Z,38.32
2023-02-04T05:33:44.205Z,38.18
2023-02-04T05:35:51.015Z,38.29
2023-02-04T05:37:55.442Z,38.4
2023-02-04T05:39:59.800Z,38.28
2023-02-04T05:42:04.248Z,38.1
2023-02-04T05:44:08.616Z,38.14
2023-02-04T05:46:13.376Z,38.23
2023-02-04T05:48:17.813Z,38.18
2023-02-04T05:50:22.230Z,38.2
2023-02-04T05:52:26.594Z,38.24
2023-02-04T05:54:31.031Z,38.25
2023-02-04T05:56:35.396Z,38.21
2023-02-04T05:58:42.007Z,38.22
2023-02-04T06:00:46.394Z,38.21
2023-02-04T06:02:50.828Z,38.24
2023-02-04T06:04:55.242Z,38.29
2023-02-04T06:06:59.636Z,38.27
2023-02-04T06:09:04.129Z,38.36
2023-02-04T06:11:08.495Z,38.32
2023-02-04T06:13:12.871Z,38.38
2023-02-04T06:15:17.231Z,38.35
2023-02-04T06:17:21.754Z,38.32
2023-02-04T06:19:26.111Z,38.32
2023-02-04T06:21:30.780Z,38.27
2023-02-04T06:23:35.242Z,38.27
2023-02-04T06:25:39.604Z,38.42
2023-02-04T06:27:44.251Z,38.38
2023-02-04T06:29:48.652Z,38.34
2023-02-04T06:31:53.682Z,38.39
2023-02-04T06:33:58.253Z,38.38
2023-02-04T06:36:02.711Z,38.5
2023-02-04T06:38:07.076Z,38.45
2023-02-04T06:40:11.451Z,38.47
2023-02-04T06:42:15.868Z,38.52
2023-02-04T06:44:20.260Z,38.54
2023-02-04T06:46:24.919Z,38.62
2023-02-04T06:48:32.134Z,38.65
2023-02-04T06:50:36.487Z,38.6
2023-02-04T06:52:40.866Z,38.59
2023-02-04T06:54:45.279Z,38.56
2023-02-04T06:56:49.703Z,38.53
2023-02-04T06:58:54.095Z,37.29
2023-02-04T07:00:58.503Z,37.02
2023-02-04T07:03:02.948Z,36.81
2023-02-04T07:05:07.432Z,36.96
2023-02-04T07:07:11.905Z,36.02
2023-02-04T07:09:16.329Z,36.73
2023-02-04T07:11:20.698Z,36.39
2023-02-04T07:13:25.105Z,36.19
2023-02-04T07:15:29.817Z,35.9
2023-02-04T07:17:34.285Z,36.2
2023-02-04T07:19:38.684Z,36.24
2023-02-04T07:21:43.068Z,36.18
2023-02-04T07:23:47.432Z,35.97
2023-02-04T07:25:51.832Z,35.58
2023-02-04T07:27:56.421Z,35.47
2023-02-04T07:30:00.972Z,34.99
2023-02-04T07:32:05.888Z,35.19
2023-02-04T07:34:10.309Z,35.44
2023-02-04T07:36:17.229Z,35.45
2023-02-04T07:38:21.588Z,35.56
2023-02-04T07:40:25.977Z,35.65
2023-02-04T07:42:30.412Z,35.5
2023-02-04T07:44:34.903Z,35.81
2023-02-04T07:46:39.531Z,35.82
2023-02-04T07:48:44.013Z,35.83
2023-02-04T07:50:48.432Z,35.86
2023-02-04T07:52:52.825Z,35.92
2023-02-04T07:54:57.203Z,35.99
2023-02-04T07:57:01.604Z,36.01
2023-02-04T07:59:06.214Z,36.05
2023-02-04T08:01:10.721Z,36.11
2023-02-04T08:03:15.183Z,36.14
2023-02-04T08:05:19.583Z,36.13
2023-02-04T08:07:24.094Z,36.2
2023-02-04T08:09:28.480Z,36.17
2023-02-04T08:11:32.892Z,36.28
2023-02-04T08:13:37.282Z,36.29
2023-02-04T08:15:41.852Z,36.25
2023-02-04T08:17:46.297Z,36.3
2023-02-04T08:19:50.761Z,36.28
2023-02-04T08:21:55.151Z,36.38
2023-02-04T08:23:59.517Z,36.38
2023-02-04T08:26:03.921Z,36.35
2023-02-04T08:28:08.510Z,36.38
2023-02-04T08:30:12.921Z,36.41
2023-02-04T08:32:17.325Z,36.49
2023-02-04T08:34:21.693Z,36.46
2023-02-04T08:36:26.192Z,36.51
2023-02-04T08:38:31.177Z,36.5
2023-02-04T08:40:36.193Z,36.53
2023-02-04T08:42:40.747Z,36.61
2023-02-04T08:44:45.202Z,36.6
2023-02-04T08:46:49.760Z,36.6
2023-02-04T08:48:54.234Z,36.58
2023-02-04T08:50:58.629Z,36.59
2023-02-04T08:53:03.054Z,36.57
2023-02-04T08:55:07.460Z,36.48
2023-02-04T08:57:11.837Z,36.46
2023-02-04T08:59:16.319Z,36.46
2023-02-04T09:01:21.074Z,36.45
2023-02-04T09:03:25.464Z,36.44
2023-02-04T09:05:29.874Z,36.44
2023-02-04T09:07:34.259Z,36.58
2023-02-04T09:09:38.797Z,36.61
2023-02-04T09:11:43.203Z,36.65
2023-02-04T09:13:47.954Z,36.64
2023-02-04T09:15:54.493Z,36.68
2023-02-04T09:17:58.888Z,36.71
2023-02-04T09:20:03.371Z,36.7
2023-02-04T09:22:07.752Z,36.69
2023-02-04T09:24:12.214Z,36.69
2023-02-04T09:26:16.728Z,36.67
2023-02-04T09:28:21.385Z,36.72
2023-02-04T09:30:25.968Z,36.74
2023-02-04T09:32:30.377Z,36.75
2023-02-04T09:34:34.755Z,36.77
2023-02-04T09:36:39.199Z,36.95
2023-02-04T09:38:43.624Z,36.9
2023-02-04T09:40:48.036Z,36.86
2023-02-04T09:42:52.404Z,36.95
2023-02-04T09:44:56.832Z,36.95
2023-02-04T09:47:01.259Z,37
2023-02-04T09:49:05.731Z,37.03
2023-02-04T09:51:10.143Z,37.03
2023-02-04T09:53:14.588Z,37.02
2023-02-04T09:55:18.968Z,37
2023-02-04T09:57:23.370Z,37.06
2023-02-04T09:59:27.766Z,36.95
2023-02-04T10:01:32.137Z,37.05
2023-02-04T10:03:36.732Z,37.06
2023-02-04T10:05:41.158Z,37.04
2023-02-04T10:07:45.546Z,36.98
2023-02-04T10:09:49.961Z,36.94
2023-02-04T10:11:54.334Z,36.97
2023-02-04T10:13:58.734Z,36.87
2023-02-04T10:16:03.105Z,36.89
2023-02-04T10:18:07.523Z,36.86
2023-02-04T10:20:11.918Z,36.95
2023-02-04T10:22:16.378Z,37
2023-02-04T10:24:20.784Z,36.87
2023-02-04T10:26:25.180Z,36.84
2023-02-04T10:28:29.562Z,36.82
2023-02-04T10:30:35.338Z,36.86
2023-02-04T10:32:39.931Z,36.74
2023-02-04T10:34:44.345Z,36.77
2023-02-04T10:36:48.721Z,36.78
2023-02-04T10:38:53.131Z,36.71
2023-02-04T10:40:57.528Z,36.18
2023-02-04T10:43:01.945Z,36.12
2023-02-04T10:45:06.361Z,36.58
2023-02-04T10:47:10.736Z,36.58
2023-02-04T10:49:15.153Z,36.62
2023-02-04T10:51:19.561Z,36.54
2023-02-04T10:53:23.985Z,36.49
2023-02-04T10:55:28.384Z,36.42
2023-02-04T10:57:32.760Z,36.39
2023-02-04T10:59:37.174Z,36.35
2023-02-04T11:01:41.759Z,36.44
2023-02-04T11:03:52.598Z,36.47
2023-02-04T11:05:57.035Z,36.41
2023-02-04T11:08:01.568Z,36.5
2023-02-04T11:10:06.014Z,36.6
2023-02-04T11:12:10.469Z,36.65
2023-02-04T11:14:14.900Z,36.61
2023-02-04T11:16:20.003Z,36.57
2023-02-04T11:18:24.513Z,36.46
2023-02-04T11:20:28.893Z,36.35
2023-02-04T11:22:33.312Z,36.41
2023-02-04T11:24:37.694Z,36.4
2023-02-04T11:26:42.125Z,36.42
2023-02-04T11:28:46.532Z,36.29
2023-02-04T11:30:51.260Z,36.43
2023-02-04T11:32:55.859Z,36.67
2023-02-04T11:35:00.402Z,36.42
2023-02-04T11:37:04.810Z,36.51
2023-02-04T11:39:09.268Z,36.51
2023-02-04T11:41:13.727Z,36.62
2023-02-04T11:43:18.124Z,36.47
2023-02-04T11:45:22.544Z,36.45
2023-02-04T11:47:27.037Z,36.22
2023-02-04T11:49:31.805Z,36.48
2023-02-04T11:51:36.396Z,33.02
2023-02-04T11:53:40.781Z,32.04
2023-02-04T11:55:48.238Z,33.42
2023-02-04T11:57:52.623Z,33.5
2023-02-04T11:59:57.035Z,33.78
2023-02-04T12:02:01.483Z,33.67
2023-02-04T12:04:06.308Z,33.72
2023-02-04T12:06:10.787Z,33.36
2023-02-04T12:08:15.324Z,30.19
2023-02-04T12:10:19.734Z,28.45
2023-02-04T12:12:24.192Z,27.37
2023-02-04T12:14:28.592Z,26.76
2023-02-04T12:16:32.976Z,26.77
2023-02-04T12:18:37.364Z,26.59
2023-02-04T12:20:41.843Z,27.74
2023-02-04T12:22:46.231Z,29.21
2023-02-04T12:24:50.665Z,30.25
2023-02-04T12:26:55.079Z,30.76
2023-02-04T12:28:59.515Z,30.7
2023-02-04T12:31:04.535Z,31.37
2023-02-04T12:33:08.996Z,31.51
2023-02-04T12:35:13.399Z,31.6
2023-02-04T12:37:17.801Z,31.71
2023-02-04T12:39:22.253Z,31.74
2023-02-04T12:41:26.740Z,31.88
2023-02-04T12:43:31.153Z,31.83
2023-02-04T12:45:35.995Z,31.71
2023-02-04T12:47:40.388Z,32.18
2023-02-04T12:49:44.786Z,32.08
2023-02-04T12:51:49.192Z,32.32
2023-02-04T12:53:53.584Z,32.26
2023-02-04T12:55:59.795Z,31.99
2023-02-04T12:58:04.200Z,32.18
2023-02-04T13:00:08.601Z,32.23
2023-02-04T13:02:13.310Z,31.89
2023-02-04T13:04:17.855Z,32.36
2023-02-04T13:06:22.280Z,32.23
2023-02-04T13:08:26.699Z,32.62
2023-02-04T13:10:31.106Z,32.49
2023-02-04T13:12:35.517Z,32.3
2023-02-04T13:14:39.946Z,32.32
2023-02-04T13:16:44.446Z,32.3
2023-02-04T13:18:48.877Z,32.39
2023-02-04T13:20:53.329Z,32.18
2023-02-04T13:22:57.728Z,32.14
2023-02-04T13:25:05.156Z,32.16
2023-02-04T13:27:09.610Z,31.53
2023-02-04T13:29:14.031Z,31.75
2023-02-04T13:31:18.730Z,31.81
2023-02-04T13:33:23.250Z,32.34
2023-02-04T13:35:27.702Z,31.6
2023-02-04T13:37:32.121Z,32.09
2023-02-04T13:39:36.593Z,31.65
2023-02-04T13:41:41.005Z,31.61
2023-02-04T13:43:45.421Z,31.69
2023-02-04T13:45:50.224Z,31.79
2023-02-04T13:47:54.621Z,32.42
2023-02-04T13:49:59.106Z,31.31
2023-02-04T13:52:03.510Z,31.27
2023-02-04T13:54:08.003Z,31.73
2023-02-04T13:56:12.432Z,31.32
2023-02-04T13:58:16.892Z,31.02
2023-02-04T14:00:21.344Z,30.77
2023-02-04T14:02:26.136Z,30.7
2023-02-04T14:04:30.566Z,31.78
2023-02-04T14:06:35.049Z,31.69
2023-02-04T14:08:39.492Z,31.96
2023-02-04T14:10:44.019Z,31.68
2023-02-04T14:12:48.451Z,31.84
2023-02-04T14:14:52.838Z,31.97
2023-02-04T14:16:57.594Z,31.91
2023-02-04T14:19:01.918Z,31.74
2023-02-04T14:21:06.320Z,32.06
2023-02-04T14:23:10.713Z,31.63
2023-02-04T14:25:15.103Z,31.1
2023-02-04T14:27:19.496Z,31.5
2023-02-04T14:29:23.982Z,31.73
2023-02-04T14:31:28.609Z,31.8
2023-02-04T14:33:32.976Z,32
2023-02-04T14:35:37.344Z,31.98
2023-02-04T14:37:41.670Z,31.96
2023-02-04T14:39:46.003Z,32.01
2023-02-04T14:41:50.345Z,32.01
2023-02-04T14:43:54.690Z,32.18
2023-02-04T14:45:59.240Z,32.23
2023-02-04T14:48:03.625Z,32.49
2023-02-04T14:50:08.145Z,32.53
2023-02-04T14:52:12.556Z,32.63
2023-02-04T14:54:16.972Z,32.65
2023-02-04T14:56:21.387Z,32.7
2023-02-04T14:58:28.780Z,32.6
2023-02-04T15:00:34.645Z,32.59
2023-02-04T15:02:39.444Z,32.6
2023-02-04T15:04:43.917Z,32.54
2023-02-04T15:06:48.382Z,32.57
2023-02-04T15:08:52.799Z,32.69
2023-02-04T15:10:57.476Z,32.75
2023-02-04T15:13:01.966Z,32.76
2023-02-04T15:15:06.452Z,32.82
2023-02-04T15:17:10.826Z,32.81
2023-02-04T15:19:15.232Z,28.05
2023-02-04T15:21:20.224Z,27.74
2023-02-04T15:23:24.714Z,26.8
2023-02-04T15:25:29.257Z,29.47
2023-02-04T15:27:33.701Z,30.84
2023-02-04T15:29:38.133Z,31.34
2023-02-04T15:31:43.096Z,31.74
2023-02-04T15:33:47.560Z,32
2023-02-04T15:35:51.961Z,32.12
2023-02-04T15:37:56.539Z,32.12
2023-02-04T15:40:00.984Z,32.39
2023-02-04T15:42:05.436Z,32.27
2023-02-04T15:44:09.843Z,32.56
2023-02-04T15:46:14.579Z,32.29
2023-02-04T15:48:19.052Z,32.56
2023-02-04T15:50:23.547Z,32.67
2023-02-04T15:52:30.951Z,32.71
2023-02-04T15:54:35.625Z,32.55
2023-02-04T15:56:40.003Z,32.6
2023-02-04T15:58:44.399Z,32.58
2023-02-04T16:00:48.814Z,32.59
2023-02-04T16:02:53.440Z,32.62
2023-02-04T16:04:57.964Z,32.83
2023-02-04T16:07:02.347Z,32.75
2023-02-04T16:09:06.774Z,32.93
2023-02-04T16:11:11.241Z,32.74
2023-02-04T16:13:15.734Z,32.63
2023-02-04T16:15:20.176Z,32.57
2023-02-04T16:17:24.588Z,32.6
2023-02-04T16:19:28.974Z,32.76
2023-02-04T16:21:33.409Z,33.02
2023-02-04T16:23:37.775Z,32.69
2023-02-04T16:25:42.173Z,32.64
2023-02-04T16:27:46.718Z,32.69
2023-02-04T16:29:51.154Z,32.79
2023-02-04T16:31:55.736Z,32.72
2023-02-04T16:34:00.168Z,32.86
2023-02-04T16:36:04.725Z,33.06
2023-02-04T16:38:09.113Z,33.17
2023-02-04T16:40:14.568Z,33.5
2023-02-04T16:42:18.957Z,33.65
2023-02-04T16:44:23.416Z,33.89
2023-02-04T16:46:27.978Z,33.51
2023-02-04T16:48:32.418Z,33.44
2023-02-04T16:50:37.334Z,33.58
2023-02-04T16:52:41.833Z,33.97
2023-02-04T16:54:46.373Z,33.85
2023-02-04T16:56:50.769Z,33.74
2023-02-04T16:58:55.195Z,33.67
2023-02-04T17:00:59.586Z,33.55
2023-02-04T17:03:04.282Z,33.47
2023-02-04T17:05:08.757Z,33.78
2023-02-04T17:07:13.124Z,34.08
2023-02-04T17:09:17.540Z,34.57
2023-02-04T17:11:21.952Z,34.51
2023-02-04T17:13:26.369Z,35.2
2023-02-04T17:15:31.161Z,35.33
2023-02-04T17:17:35.714Z,35.33
2023-02-04T17:19:40.175Z,35.22
2023-02-04T17:21:44.644Z,35.31
2023-02-04T17:23:49.069Z,36.19
2023-02-04T17:25:53.524Z,36.6
2023-02-04T17:27:58.211Z,36.46
2023-02-04T17:30:02.874Z,36.59
2023-02-04T17:32:07.268Z,37.35
2023-02-04T17:34:11.692Z,37.45
2023-02-04T17:36:16.074Z,37.94
2023-02-04T17:38:20.494Z,38.24
2023-02-04T17:40:24.878Z,39.23
2023-02-04T17:42:29.326Z,39.15
2023-02-04T17:44:34.210Z,39.62
2023-02-04T17:46:39.000Z,39.4
2023-02-04T17:48:43.441Z,40.3
2023-02-04T17:50:47.913Z,38.51
2023-02-04T17:52:52.279Z,39.64
2023-02-04T17:54:56.696Z,39.86
2023-02-04T17:57:01.074Z,39.19
2023-02-04T17:59:05.484Z,38.8
2023-02-04T18:01:10.737Z,39.04
2023-02-04T18:03:15.694Z,39.54
2023-02-04T18:05:20.278Z,39.22
2023-02-04T18:07:24.664Z,39.49
2023-02-04T18:09:29.102Z,39.58
2023-02-04T18:11:34.155Z,39.45
2023-02-04T18:13:38.589Z,39.41
2023-02-04T18:15:43.031Z,39.28
2023-02-04T18:17:47.441Z,39.32
2023-02-04T18:19:51.873Z,39.37
2023-02-04T18:21:56.286Z,39.25
2023-02-04T18:24:03.188Z,34.56
2023-02-04T18:26:07.639Z,34.14
2023-02-04T18:28:12.396Z,32.27
2023-02-04T18:30:17.964Z,31.26
2023-02-04T18:32:22.507Z,29.54
2023-02-04T18:34:26.943Z,29.41
2023-02-04T18:36:31.364Z,29
2023-02-04T18:38:35.748Z,28.31
2023-02-04T18:40:42.836Z,28.07
2023-02-04T18:42:47.268Z,27.93
2023-02-04T18:44:51.707Z,27.7
2023-02-04T18:46:56.150Z,27.06
2023-02-04T18:49:00.575Z,26.74
2023-02-04T18:51:04.988Z,26.39
2023-02-04T18:53:09.441Z,25.99
2023-02-04T18:55:14.910Z,26.1
2023-02-04T18:57:19.473Z,26.16
2023-02-04T18:59:23.880Z,26.08
2023-02-04T19:01:28.692Z,26.14
2023-02-04T19:03:33.082Z,25.13
2023-02-04T19:05:37.642Z,26.05
2023-02-04T19:07:42.085Z,26.37
2023-02-04T19:09:46.519Z,25.72
2023-02-04T19:11:50.991Z,25.31
2023-02-04T19:13:55.547Z,25.21
2023-02-04T19:15:59.961Z,25.29
2023-02-04T19:18:04.476Z,24.97
2023-02-04T19:20:08.927Z,25.04
2023-02-04T19:22:14.337Z,24.79
2023-02-04T19:24:18.930Z,24.77
2023-02-04T19:26:23.432Z,24.61
2023-02-04T19:28:28.396Z,23.61
2023-02-04T19:30:32.994Z,24.42
2023-02-04T19:32:37.539Z,24.62
2023-02-04T19:34:42.051Z,25.79
2023-02-04T19:36:46.500Z,26.61
2023-02-04T19:38:53.033Z,27.03
2023-02-04T19:40:57.526Z,27.66
2023-02-04T19:43:01.970Z,27.81
2023-02-04T19:45:06.439Z,27.73
2023-02-04T19:47:10.874Z,27.7
2023-02-04T19:49:15.273Z,27.78
2023-02-04T19:51:19.730Z,28.55
2023-02-04T19:53:24.157Z,28.55
2023-02-04T19:55:28.640Z,28.83
2023-02-04T19:57:33.023Z,29.28
2023-02-04T19:59:37.438Z,29.37
2023-02-04T20:01:41.945Z,29.76
2023-02-04T20:03:46.416Z,30.03
2023-02-04T20:05:50.830Z,30.26
2023-02-04T20:07:55.203Z,30.46
2023-02-04T20:09:59.644Z,30.47
2023-02-04T20:12:04.004Z,30.51
2023-02-04T20:14:08.401Z,30.67
2023-02-04T20:16:12.987Z,31.04
2023-02-04T20:18:17.374Z,30.81
2023-02-04T20:20:21.842Z,31.2
2023-02-04T20:22:26.194Z,30.83
2023-02-04T20:24:30.605Z,30.91
2023-02-04T20:26:35.040Z,30.73
2023-02-04T20:28:39.584Z,30.6
2023-02-04T20:30:44.661Z,30.92
2023-02-04T20:32:49.163Z,31.52
2023-02-04T20:34:53.648Z,31.66
2023-02-04T20:36:58.120Z,31.27
2023-02-04T20:39:02.509Z,31.66
2023-02-04T20:41:07.122Z,31.34
2023-02-04T20:43:11.544Z,31.59
2023-02-04T20:45:15.902Z,30.98
2023-02-04T20:47:20.338Z,31.37
2023-02-04T20:49:24.916Z,31.66
2023-02-04T20:51:29.330Z,31.43
2023-02-04T20:53:33.786Z,31.58
2023-02-04T20:55:38.803Z,31.71
2023-02-04T20:57:43.189Z,31.74
2023-02-04T20:59:47.588Z,31.44
2023-02-04T21:01:52.280Z,31.5
2023-02-04T21:03:56.775Z,31.45
2023-02-04T21:06:01.240Z,31.26
2023-02-04T21:08:05.601Z,29.73
2023-02-04T21:10:09.985Z,31.05
2023-02-04T21:12:14.363Z,31.22
2023-02-04T21:14:18.749Z,31.52
2023-02-04T21:16:23.311Z,31.56
2023-02-04T21:18:27.674Z,31.72
2023-02-04T21:20:32.052Z,31.39
2023-02-04T21:22:36.458Z,31.39
2023-02-04T21:24:40.826Z,31.26
2023-02-04T21:26:45.286Z,31.75
2023-02-04T21:28:49.673Z,32.22
2023-02-04T21:30:54.307Z,30.77
2023-02-04T21:32:58.752Z,26.27
2023-02-04T21:35:03.270Z,25.75
2023-02-04T21:37:07.685Z,25.46
2023-02-04T21:39:12.095Z,24.75
2023-02-04T21:41:16.590Z,24.59
2023-02-04T21:43:21.014Z,23.57
2023-02-04T21:45:25.410Z,23.58
2023-02-04T21:47:29.816Z,23.29
2023-02-04T21:49:34.297Z,23.7
2023-02-04T21:51:38.730Z,23.35
2023-02-04T21:53:43.171Z,23.19
2023-02-04T21:55:47.614Z,23
2023-02-04T21:57:52.160Z,22.99
2023-02-04T21:59:56.609Z,23.49
2023-02-04T22:02:01.269Z,25.44
2023-02-04T22:04:05.783Z,26.08
2023-02-04T22:06:10.248Z,26.71
2023-02-04T22:08:14.664Z,27.64
2023-02-04T22:10:19.043Z,28.58
2023-02-04T22:12:23.702Z,29.17
2023-02-04T22:14:28.089Z,29.07
2023-02-04T22:16:32.672Z,30.31
2023-02-04T22:18:37.089Z,30.11
2023-02-04T22:20:41.769Z,31.07
2023-02-04T22:22:46.296Z,31.18
2023-02-04T22:24:50.710Z,31.17
2023-02-04T22:26:55.147Z,30.62
2023-02-04T22:28:59.666Z,30.86
2023-02-04T22:31:04.546Z,31.59
2023-02-04T22:33:09.044Z,30.77
2023-02-04T22:35:13.459Z,31.04
2023-02-04T22:37:17.874Z,31.11
2023-02-04T22:39:22.350Z,30.7
2023-02-04T22:41:26.785Z,31.05
2023-02-04T22:43:31.171Z,31.47
2023-02-04T22:45:36.588Z,30.54
2023-02-04T22:47:41.107Z,31.15
2023-02-04T22:49:45.598Z,31.57
2023-02-04T22:51:50.117Z,30.74
2023-02-04T22:53:54.535Z,30.71
2023-02-04T22:55:58.967Z,31.16
2023-02-04T22:58:03.396Z,31.18
2023-02-04T23:00:07.795Z,31.6
2023-02-04T23:02:12.423Z,31.05
2023-02-04T23:04:16.927Z,30.85
2023-02-04T23:06:21.408Z,31.48
2023-02-04T23:08:25.798Z,31.52
2023-02-04T23:10:30.193Z,31.87
2023-02-04T23:12:34.580Z,31.7
2023-02-04T23:14:38.933Z,32.09
2023-02-04T23:16:43.545Z,32.13
2023-02-04T23:18:48.009Z,31.71
2023-02-04T23:20:52.398Z,31.92
2023-02-04T23:22:56.782Z,31.95
2023-02-04T23:25:01.270Z,31.67
2023-02-04T23:27:05.672Z,32.14
2023-02-04T23:29:10.115Z,31.34
2023-02-04T23:31:14.791Z,32.05
2023-02-04T23:33:19.225Z,32.21
2023-02-04T23:35:23.723Z,32.35
2023-02-04T23:37:28.089Z,32.53
2023-02-04T23:39:32.538Z,32.28
2023-02-04T23:41:36.946Z,32.2
2023-02-04T23:43:41.662Z,32.23
2023-02-04T23:45:46.232Z,32
2023-02-04T23:47:50.637Z,32.27
2023-02-04T23:49:55.045Z,32.17
2023-02-04T23:51:59.457Z,32.34
2023-02-04T23:54:03.944Z,32.28
2023-02-04T23:56:08.342Z,32.12
2023-02-04T23:58:12.795Z,32.08
